Time;durP1;ratioP1;P1;durP2;ratioP2;P2;SDS_P1;SDS_P2;PMS_P1;PMS_P2;Temp;Humidity;BMP_temperature;BMP_pressure;BME280_temperature;BME280_humidity;BME280_pressure;Samples;Min_cycle;Max_cycle;Signal;HPM_P1;HPM_P2
2023/03/19 00:00:28;;;;;;;;;;;7.40;87.30;;;;;;5076926;28;20299;-90
2023/03/19 00:02:54;;;;;;;;;;;7.40;87.20;;;;;;5088501;28;20396;-90
2023/03/19 00:05:19;;;;;;;;;;;7.40;86.20;;;;;;5090034;28;20026;-90
2023/03/19 00:07:45;;;;;;;;;;;7.30;85.80;;;;;;5093094;28;19948;-90
2023/03/19 00:10:11;;;;;;;;;;;7.40;85.80;;;;;;5106409;28;19963;-89
2023/03/19 00:12:36;;;;;;;;;;;7.40;85.70;;;;;;5113478;28;19939;-89
2023/03/19 00:15:02;;;;;;;;;;;7.30;85.30;;;;;;5113460;28;19982;-89
2023/03/19 00:17:27;;;;;;;;;;;7.20;85.00;;;;;;5113261;28;19984;-89
2023/03/19 00:19:53;;;;;;;;;;;7.10;85.20;;;;;;5102506;28;19946;-90
2023/03/19 00:22:18;;;;;;;;;;;7.10;85.20;;;;;;5092995;28;20403;-89
2023/03/19 00:24:44;;;;;;;;;;;6.90;85.40;;;;;;5092984;28;20510;-89
2023/03/19 00:27:09;;;;;;;;;;;6.90;85.00;;;;;;5095317;28;19948;-89
2023/03/19 00:29:35;;;;;;;;;;;6.90;85.40;;;;;;5104886;28;19965;-89
2023/03/19 00:32:01;;;;;;;;;;;6.70;86.80;;;;;;5098799;28;20418;-89
2023/03/19 00:34:27;;;;;;;;;;;6.70;86.00;;;;;;5117300;28;19945;-90
2023/03/19 00:36:52;;;;;;;;;;;6.70;86.30;;;;;;5117236;28;19984;-90
2023/03/19 00:39:18;;;;;;;;;;;6.60;86.10;;;;;;5111374;28;19944;-90
2023/03/19 00:41:49;;;;;;;;;;;6.70;86.60;;;;;;5078640;28;19998;-90
2023/03/19 00:44:18;;;;;;;;;;;6.80;86.80;;;;;;5096739;28;19954;-89
2023/03/19 00:46:44;;;;;;;;;;;6.80;85.80;;;;;;5096650;28;19942;-89
2023/03/19 00:49:09;;;;;;;;;;;6.80;85.60;;;;;;5100965;28;20322;-90
2023/03/19 00:51:35;;;;;;;;;;;6.70;85.20;;;;;;5116992;28;19943;-90
2023/03/19 00:54:00;;;;;;;;;;;6.60;85.60;;;;;;5116862;28;19960;-90
2023/03/19 00:56:26;;;;;;;;;;;6.50;85.50;;;;;;5117051;28;19938;-90
2023/03/19 00:58:51;;;;;;;;;;;6.40;85.60;;;;;;5114918;28;20449;-89
2023/03/19 01:01:17;;;;;;;;;;;6.30;86.10;;;;;;5096253;28;19936;-90
2023/03/19 01:03:44;;;;;;;;;;;6.40;86.60;;;;;;5096131;28;20031;-90
2023/03/19 01:06:10;;;;;;;;;;;6.40;86.60;;;;;;5096250;28;19937;-90
2023/03/19 01:08:36;;;;;;;;;;;6.60;86.80;;;;;;5096218;28;19990;-89
2023/03/19 01:11:08;;;;;;;;;;;6.50;86.50;;;;;;5090902;28;20190;-90
2023/03/19 01:13:34;;;;;;;;;;;6.50;85.60;;;;;;5075854;28;19987;-90
2023/03/19 01:15:59;;;;;;;;;;;6.50;85.20;;;;;;5076131;28;19971;-90
2023/03/19 01:18:25;;;;;;;;;;;6.50;85.20;;;;;;5075756;28;20030;-89
2023/03/19 01:20:51;;;;;;;;;;;6.50;84.80;;;;;;5094056;28;19993;-90
2023/03/19 01:23:16;;;;;;;;;;;6.50;84.10;;;;;;5095763;28;19942;-89
2023/03/19 01:25:42;;;;;;;;;;;6.40;83.40;;;;;;5095888;28;19949;-90
2023/03/19 01:28:07;;;;;;;;;;;6.50;83.10;;;;;;5095739;28;19987;-90
2023/03/19 01:30:33;;;;;;;;;;;6.50;83.10;;;;;;5110606;28;20366;-89
2023/03/19 01:32:59;;;;;;;;;;;6.50;83.50;;;;;;5116400;28;20308;-90
2023/03/19 01:35:24;;;;;;;;;;;6.40;83.70;;;;;;5116207;28;19937;-90
2023/03/19 01:37:51;;;;;;;;;;;6.40;84.00;;;;;;5115703;28;20372;-89
2023/03/19 01:40:16;;;;;;;;;;;6.30;84.50;;;;;;5107579;28;20372;-89
2023/03/19 01:42:52;;;;;;;;;;;6.30;85.90;;;;;;5077472;28;19942;-90
2023/03/19 01:45:30;;;;;;;;;;;6.30;85.80;;;;;;5095574;28;20328;-89
2023/03/19 01:47:56;;;;;;;;;;;6.30;85.70;;;;;;5095483;28;19946;-90
2023/03/19 01:50:27;;;;;;;;;;;6.30;85.00;;;;;;5090056;28;19959;-89
2023/03/19 01:52:53;;;;;;;;;;;6.30;85.10;;;;;;5097461;28;19966;-89
2023/03/19 01:55:18;;;;;;;;;;;6.20;84.60;;;;;;5115811;28;20375;-90
2023/03/19 01:57:45;;;;;;;;;;;6.10;84.10;;;;;;5115752;28;20079;-89
2023/03/19 02:00:11;;;;;;;;;;;6.00;84.30;;;;;;5104072;28;19943;-89
2023/03/19 02:02:37;;;;;;;;;;;5.90;84.20;;;;;;5095057;28;19942;-90
2023/03/19 02:05:08;;;;;;;;;;;5.70;84.70;;;;;;5095032;28;20052;-90
2023/03/19 02:07:35;;;;;;;;;;;5.70;85.70;;;;;;5095102;28;19947;-90
2023/03/19 02:10:02;;;;;;;;;;;5.70;86.30;;;;;;5104416;28;19964;-90
2023/03/19 02:12:28;;;;;;;;;;;5.70;86.30;;;;;;5115512;28;20037;-90
2023/03/19 02:14:54;;;;;;;;;;;5.60;86.20;;;;;;5115344;28;19982;-91
2023/03/19 02:17:20;;;;;;;;;;;5.60;86.90;;;;;;5115309;28;20379;-89
2023/03/19 02:19:56;;;;;;;;;;;5.80;87.20;;;;;;5107931;28;19941;-90
2023/03/19 02:22:24;;;;;;;;;;;5.80;87.20;;;;;;5095107;28;20392;-90
2023/03/19 02:25:00;;;;;;;;;;;5.90;87.60;;;;;;5094809;28;19991;-89
2023/03/19 02:27:26;;;;;;;;;;;6.00;88.10;;;;;;5094997;28;19945;-90
2023/03/19 02:29:52;;;;;;;;;;;6.00;88.00;;;;;;5102324;28;19954;-90
2023/03/19 02:32:17;;;;;;;;;;;6.10;88.20;;;;;;5115062;28;20358;-90
2023/03/19 02:34:43;;;;;;;;;;;6.20;88.10;;;;;;5115003;28;19941;-90
2023/03/19 02:37:15;;;;;;;;;;;6.20;88.20;;;;;;5115153;28;19938;-90
2023/03/19 02:39:42;;;;;;;;;;;6.20;88.20;;;;;;5108560;28;19939;-89
2023/03/19 02:42:08;;;;;;;;;;;6.20;87.70;;;;;;5094479;28;20161;-90
2023/03/19 02:44:34;;;;;;;;;;;6.10;87.80;;;;;;5094412;28;19941;-90
2023/03/19 02:46:59;;;;;;;;;;;6.10;87.80;;;;;;5094321;28;20329;-90
2023/03/19 02:49:25;;;;;;;;;;;6.00;87.50;;;;;;5091521;28;20445;-89
2023/03/19 02:51:51;;;;;;;;;;;6.00;87.30;;;;;;5094532;28;19942;-90
2023/03/19 02:54:16;;;;;;;;;;;6.10;87.10;;;;;;5075917;28;19962;-89
2023/03/19 02:56:42;;;;;;;;;;;6.30;87.10;;;;;;5093993;28;19947;-90
2023/03/19 02:59:08;;;;;;;;;;;6.30;86.90;;;;;;5095176;28;19941;-90
2023/03/19 03:01:34;;;;;;;;;;;6.20;87.40;;;;;;5114329;28;20008;-90
2023/03/19 03:03:59;;;;;;;;;;;6.10;88.20;;;;;;5114438;28;20393;-90
2023/03/19 03:06:25;;;;;;;;;;;6.20;88.40;;;;;;5114305;28;20407;-89
2023/03/19 03:08:50;;;;;;;;;;;6.30;87.80;;;;;;5112556;28;19970;-89
2023/03/19 03:11:16;;;;;;;;;;;6.20;87.50;;;;;;5114217;28;20416;-89
2023/03/19 03:13:41;;;;;;;;;;;6.10;87.10;;;;;;5114223;28;20099;-89
2023/03/19 03:16:07;;;;;;;;;;;5.90;87.60;;;;;;5114426;28;20565;-90
2023/03/19 03:18:33;;;;;;;;;;;5.80;88.00;;;;;;5092278;28;20420;-89
2023/03/19 03:20:58;;;;;;;;;;;5.90;88.70;;;;;;5093849;28;20403;-89
2023/03/19 03:23:24;;;;;;;;;;;6.00;89.10;;;;;;5093724;28;19940;-90
2023/03/19 03:25:50;;;;;;;;;;;6.10;88.30;;;;;;5093639;28;20428;-90
2023/03/19 03:28:16;;;;;;;;;;;6.10;88.20;;;;;;5096547;28;20017;-89
2023/03/19 03:30:42;;;;;;;;;;;6.00;88.20;;;;;;5113901;28;19987;-90
2023/03/19 03:33:08;;;;;;;;;;;6.00;88.40;;;;;;5113874;28;20420;-90
2023/03/19 03:35:34;;;;;;;;;;;6.10;88.60;;;;;;5113865;28;20028;-89
2023/03/19 03:37:59;;;;;;;;;;;6.20;88.20;;;;;;5112926;28;19950;-90
2023/03/19 03:40:26;;;;;;;;;;;6.20;87.70;;;;;;5093456;28;20098;-89
2023/03/19 03:42:51;;;;;;;;;;;6.30;87.30;;;;;;5093408;28;19942;-90
2023/03/19 03:45:17;;;;;;;;;;;6.30;86.80;;;;;;5093360;28;19935;-90
2023/03/19 03:47:43;;;;;;;;;;;6.40;86.40;;;;;;5093377;28;20013;-91
2023/03/19 03:50:09;;;;;;;;;;;6.40;86.50;;;;;;5111506;28;20052;-90
2023/03/19 03:52:35;;;;;;;;;;;6.40;86.50;;;;;;5095334;28;20403;-89
2023/03/19 03:55:02;;;;;;;;;;;6.40;86.50;;;;;;5113677;28;19950;-90
2023/03/19 03:57:28;;;;;;;;;;;6.40;86.70;;;;;;5113628;28;19976;-90
2023/03/19 03:59:53;;;;;;;;;;;6.40;87.00;;;;;;5097173;28;19950;-90
2023/03/19 04:02:19;;;;;;;;;;;6.50;86.60;;;;;;5093078;28;19939;-90
2023/03/19 04:04:45;;;;;;;;;;;6.50;86.80;;;;;;5092894;28;20020;-89
2023/03/19 04:07:11;;;;;;;;;;;6.40;86.50;;;;;;5093045;28;20028;-90
2023/03/19 04:09:36;;;;;;;;;;;6.40;86.90;;;;;;5106304;28;20427;-91
2023/03/19 04:12:02;;;;;;;;;;;6.40;87.10;;;;;;5113436;28;19944;-90
2023/03/19 04:14:28;;;;;;;;;;;6.40;87.30;;;;;;5113454;28;19952;-90
2023/03/19 04:16:53;;;;;;;;;;;6.40;87.30;;;;;;5113454;28;19975;-90
2023/03/19 04:19:19;;;;;;;;;;;6.50;87.10;;;;;;5102296;28;19962;-89
2023/03/19 04:21:44;;;;;;;;;;;6.60;87.00;;;;;;5093026;28;19935;-90
2023/03/19 04:24:10;;;;;;;;;;;6.70;87.20;;;;;;5093294;28;20086;-89
2023/03/19 04:26:36;;;;;;;;;;;6.70;86.90;;;;;;5093006;28;19947;-90
2023/03/19 04:29:02;;;;;;;;;;;6.70;86.60;;;;;;5101097;28;19943;-90
2023/03/19 04:31:28;;;;;;;;;;;6.80;86.60;;;;;;5113292;28;19935;-90
2023/03/19 04:33:54;;;;;;;;;;;6.80;86.50;;;;;;5113292;28;19952;-89
2023/03/19 04:36:19;;;;;;;;;;;6.80;86.70;;;;;;5113266;28;19938;-90
2023/03/19 04:38:45;;;;;;;;;;;6.80;86.90;;;;;;5112861;28;19958;-90
2023/03/19 04:41:12;;;;;;;;;;;6.90;87.10;;;;;;5113203;28;19935;-89
2023/03/19 04:43:38;;;;;;;;;;;6.80;86.80;;;;;;5113482;28;19943;-90
2023/03/19 04:46:05;;;;;;;;;;;6.80;86.90;;;;;;5113142;28;20319;-89
2023/03/19 04:48:31;;;;;;;;;;;6.90;87.10;;;;;;5091569;28;19953;-89
2023/03/19 04:50:57;;;;;;;;;;;6.90;87.10;;;;;;5092711;28;19987;-90
2023/03/19 04:53:23;;;;;;;;;;;6.90;87.20;;;;;;5092685;28;19957;-89
2023/03/19 04:55:49;;;;;;;;;;;6.80;87.20;;;;;;5092695;28;19939;-90
2023/03/19 04:58:15;;;;;;;;;;;6.80;87.50;;;;;;5092882;28;19948;-89
2023/03/19 05:00:40;;;;;;;;;;;6.90;87.30;;;;;;5092669;28;20013;-90
2023/03/19 05:03:06;;;;;;;;;;;6.90;87.20;;;;;;5092647;28;19941;-89
2023/03/19 05:05:31;;;;;;;;;;;6.90;87.00;;;;;;5092521;28;20061;-90
2023/03/19 05:07:57;;;;;;;;;;;6.90;86.80;;;;;;5092830;28;19995;-89
2023/03/19 05:10:23;;;;;;;;;;;6.80;86.90;;;;;;5110733;28;20299;-89
2023/03/19 05:12:49;;;;;;;;;;;6.80;87.20;;;;;;5114541;28;20136;-90
2023/03/19 05:15:15;;;;;;;;;;;6.80;87.30;;;;;;5098429;28;20456;-89
2023/03/19 05:17:41;;;;;;;;;;;6.80;87.20;;;;;;5098256;28;20254;-89
2023/03/19 05:20:08;;;;;;;;;;;6.80;87.40;;;;;;5100408;28;19957;-90
2023/03/19 05:22:34;;;;;;;;;;;6.70;87.50;;;;;;5096348;28;19940;-90
2023/03/19 05:24:59;;;;;;;;;;;6.60;87.20;;;;;;5095874;28;19939;-90
2023/03/19 05:27:25;;;;;;;;;;;6.60;87.60;;;;;;5095934;28;19942;-90
2023/03/19 05:29:50;;;;;;;;;;;6.60;87.60;;;;;;5109308;28;19966;-90
2023/03/19 05:32:16;;;;;;;;;;;6.70;87.40;;;;;;5116245;28;20391;-90
2023/03/19 05:34:42;;;;;;;;;;;6.70;87.30;;;;;;5116172;28;19946;-90
2023/03/19 05:37:08;;;;;;;;;;;6.70;87.50;;;;;;5116107;28;19937;-89
2023/03/19 05:39:34;;;;;;;;;;;6.70;87.70;;;;;;5104944;28;20000;-90
2023/03/19 05:41:59;;;;;;;;;;;6.50;87.60;;;;;;5095650;28;19938;-90
2023/03/19 05:44:25;;;;;;;;;;;6.50;88.00;;;;;;5095572;28;19982;-89
2023/03/19 05:46:51;;;;;;;;;;;6.50;88.00;;;;;;5095546;28;19939;-89
2023/03/19 05:49:16;;;;;;;;;;;6.50;88.10;;;;;;5103345;28;19947;-89
2023/03/19 05:51:42;;;;;;;;;;;6.50;88.10;;;;;;5115882;28;19989;-89
2023/03/19 05:54:07;;;;;;;;;;;6.60;88.20;;;;;;5115715;28;19953;-89
2023/03/19 05:56:33;;;;;;;;;;;6.70;88.30;;;;;;5115788;28;19997;-89
2023/03/19 05:58:58;;;;;;;;;;;6.80;88.10;;;;;;5110194;28;20420;-89
2023/03/19 06:01:24;;;;;;;;;;;6.80;87.90;;;;;;5095195;28;20373;-89
2023/03/19 06:03:49;;;;;;;;;;;6.80;87.50;;;;;;5095389;28;20016;-90
2023/03/19 06:06:15;;;;;;;;;;;6.80;87.60;;;;;;5095425;28;20462;-89
2023/03/19 06:08:41;;;;;;;;;;;6.90;87.20;;;;;;5097316;28;20348;-90
2023/03/19 06:11:07;;;;;;;;;;;6.90;86.80;;;;;;5115430;28;19974;-88
2023/03/19 06:13:33;;;;;;;;;;;7.00;86.50;;;;;;5115417;28;20040;-90
2023/03/19 06:15:58;;;;;;;;;;;7.00;86.20;;;;;;5115413;28;19947;-90
2023/03/19 06:18:24;;;;;;;;;;;7.10;86.00;;;;;;5115104;28;19937;-89
2023/03/19 06:20:49;;;;;;;;;;;7.20;86.20;;;;;;5095012;28;20435;-90
2023/03/19 06:23:15;;;;;;;;;;;7.20;86.20;;;;;;5094284;28;19943;-90
2023/03/19 06:25:41;;;;;;;;;;;7.20;86.30;;;;;;5094227;28;19949;-89
2023/03/19 06:28:06;;;;;;;;;;;7.20;86.70;;;;;;5094793;28;20426;-90
2023/03/19 06:30:32;;;;;;;;;;;7.30;86.40;;;;;;5094850;28;20465;-89
2023/03/19 06:32:58;;;;;;;;;;;7.40;85.50;;;;;;5094597;28;20413;-90
2023/03/19 06:35:24;;;;;;;;;;;7.50;85.20;;;;;;5076477;28;19970;-90
2023/03/19 06:37:49;;;;;;;;;;;7.50;85.10;;;;;;5094647;28;19940;-89
2023/03/19 06:40:15;;;;;;;;;;;7.60;84.90;;;;;;5091050;28;20415;-90
2023/03/19 06:42:45;;;;;;;;;;;7.60;84.90;;;;;;5114820;28;19936;-90
2023/03/19 06:45:11;;;;;;;;;;;7.70;84.80;;;;;;5114800;28;19937;-90
2023/03/19 06:47:36;;;;;;;;;;;7.80;84.70;;;;;;5114777;28;20352;-90
2023/03/19 06:50:03;;;;;;;;;;;7.80;85.00;;;;;;5114557;28;19962;-90
2023/03/19 06:52:28;;;;;;;;;;;7.90;85.20;;;;;;5114551;28;19983;-90
2023/03/19 06:54:54;;;;;;;;;;;7.90;85.50;;;;;;5114656;28;19936;-90
2023/03/19 06:57:20;;;;;;;;;;;8.00;85.50;;;;;;5114538;28;19943;-90
2023/03/19 06:59:45;;;;;;;;;;;8.00;85.50;;;;;;5113911;28;19949;-90
2023/03/19 07:02:11;;;;;;;;;;;8.10;85.30;;;;;;5114370;28;19994;-89
2023/03/19 07:04:36;;;;;;;;;;;8.20;85.10;;;;;;5106169;22;20032;-90
2023/03/19 07:07:04;;;;;;;;;;;8.30;84.80;;;;;;5094070;28;19944;-90
2023/03/19 07:09:30;;;;;;;;;;;8.30;84.40;;;;;;5093429;28;20067;-91
2023/03/19 07:11:56;;;;;;;;;;;8.40;83.90;;;;;;5093074;28;19978;-90
2023/03/19 07:14:22;;;;;;;;;;;8.40;83.80;;;;;;5112511;28;19945;-90
2023/03/19 07:16:47;;;;;;;;;;;8.60;83.50;;;;;;5114201;28;20035;-91
2023/03/19 07:19:13;;;;;;;;;;;8.70;82.70;;;;;;5108614;28;19983;-90
2023/03/19 07:21:39;;;;;;;;;;;8.70;81.60;;;;;;5100517;28;19994;-91
2023/03/19 07:24:04;;;;;;;;;;;8.80;79.90;;;;;;5097184;28;20054;-91
2023/03/19 07:26:30;;;;;;;;;;;8.90;79.50;;;;;;5113996;28;19943;-89
2023/03/19 07:28:55;;;;;;;;;;;9.00;78.80;;;;;;5114039;28;19948;-90
2023/03/19 07:31:21;;;;;;;;;;;9.10;78.20;;;;;;5109470;28;20302;-90
2023/03/19 07:33:46;;;;;;;;;;;9.20;77.90;;;;;;5093626;28;20299;-90
2023/03/19 07:36:12;;;;;;;;;;;9.30;77.60;;;;;;5093152;28;19941;-91
2023/03/19 07:38:37;;;;;;;;;;;9.30;76.60;;;;;;5093585;28;20395;-90
2023/03/19 07:41:03;;;;;;;;;;;9.40;76.90;;;;;;5091836;28;19939;-90
2023/03/19 07:43:30;;;;;;;;;;;9.40;76.30;;;;;;5086422;28;20395;-91
2023/03/19 07:45:55;;;;;;;;;;;9.50;75.80;;;;;;5111706;28;19944;-91
2023/03/19 07:48:21;;;;;;;;;;;9.60;75.80;;;;;;5113668;28;20400;-90
2023/03/19 07:50:48;;;;;;;;;;;9.70;75.40;;;;;;5113623;28;20406;-91
2023/03/19 07:53:14;;;;;;;;;;;9.90;75.40;;;;;;5113211;28;20010;-89
2023/03/19 07:55:39;;;;;;;;;;;9.90;75.70;;;;;;5113604;28;19938;-91
2023/03/19 07:58:05;;;;;;;;;;;10.00;76.00;;;;;;5113552;28;19972;-91
2023/03/19 08:00:31;;;;;;;;;;;10.00;75.90;;;;;;5095360;28;19997;-90
2023/03/19 08:02:56;;;;;;;;;;;10.00;75.90;;;;;;5113489;28;19942;-91
2023/03/19 08:05:22;;;;;;;;;;;10.20;76.00;;;;;;5113398;28;20060;-90
2023/03/19 08:07:49;;;;;;;;;;;10.30;75.50;;;;;;5112799;28;20344;-90
2023/03/19 08:10:15;;;;;;;;;;;10.40;75.20;;;;;;5113435;28;20062;-89
2023/03/19 08:12:40;;;;;;;;;;;10.50;75.00;;;;;;5113484;28;19987;-91
2023/03/19 08:15:06;;;;;;;;;;;10.60;74.30;;;;;;5113442;28;20419;-90
2023/03/19 08:17:37;;;;;;;;;;;10.80;73.50;;;;;;5113482;28;19935;-90
2023/03/19 08:20:10;;;;;;;;;;;10.80;73.00;;;;;;5113375;28;19953;-89
2023/03/19 08:22:36;;;;;;;;;;;10.90;72.50;;;;;;5113439;28;19941;-91
2023/03/19 08:25:02;;;;;;;;;;;11.00;72.60;;;;;;5096897;28;19948;-90
2023/03/19 08:27:29;;;;;;;;;;;11.20;72.80;;;;;;5093005;28;19972;-91
2023/03/19 08:29:55;;;;;;;;;;;11.30;73.00;;;;;;5092936;28;19957;-90
2023/03/19 08:32:20;;;;;;;;;;;11.40;72.90;;;;;;5092942;28;19945;-91
2023/03/19 08:34:46;;;;;;;;;;;11.60;72.30;;;;;;5092894;28;20065;-90
2023/03/19 08:37:11;;;;;;;;;;;11.70;72.50;;;;;;5092932;28;19942;-91
2023/03/19 08:39:37;;;;;;;;;;;11.90;72.40;;;;;;5092922;28;19994;-90
2023/03/19 08:42:02;;;;;;;;;;;11.90;72.00;;;;;;5092442;28;19945;-90
2023/03/19 08:44:28;;;;;;;;;;;11.90;72.90;;;;;;5107002;28;19948;-90
2023/03/19 08:46:54;;;;;;;;;;;11.90;73.30;;;;;;5113439;28;19938;-90
2023/03/19 08:49:19;;;;;;;;;;;12.00;73.30;;;;;;5117257;28;19954;-90
2023/03/19 08:51:45;;;;;;;;;;;12.00;74.10;;;;;;5117051;28;19935;-91
2023/03/19 08:54:12;;;;;;;;;;;12.10;74.40;;;;;;5116877;28;20048;-90
2023/03/19 08:56:38;;;;;;;;;;;12.00;74.80;;;;;;5117245;28;20036;-90
2023/03/19 08:59:03;;;;;;;;;;;12.10;74.90;;;;;;5117228;28;20421;-90
2023/03/19 09:01:29;;;;;;;;;;;12.30;74.80;;;;;;5115364;28;20409;-90
2023/03/19 09:03:55;;;;;;;;;;;12.40;73.70;;;;;;5096212;28;19975;-91
2023/03/19 09:06:20;;;;;;;;;;;12.60;73.80;;;;;;5096728;28;19940;-90
2023/03/19 09:08:46;;;;;;;;;;;12.60;73.50;;;;;;5096401;28;20406;-90
2023/03/19 09:11:13;;;;;;;;;;;12.80;73.60;;;;;;5096218;28;19962;-90
2023/03/19 09:13:39;;;;;;;;;;;13.00;73.90;;;;;;5096247;28;19933;-90
2023/03/19 09:16:05;;;;;;;;;;;13.10;73.30;;;;;;5098723;28;19944;-90
2023/03/19 09:18:31;;;;;;;;;;;13.20;73.20;;;;;;5116566;28;19980;-90
2023/03/19 09:20:56;;;;;;;;;;;13.30;72.70;;;;;;5116513;28;19941;-90
2023/03/19 09:23:22;;;;;;;;;;;13.30;72.50;;;;;;5116487;28;19985;-90
2023/03/19 09:25:48;;;;;;;;;;;13.30;72.80;;;;;;5116642;28;19941;-90
2023/03/19 09:28:14;;;;;;;;;;;13.50;72.30;;;;;;5116375;28;20003;-90
2023/03/19 09:30:39;;;;;;;;;;;13.40;72.30;;;;;;5116210;28;19960;-92
2023/03/19 09:33:05;;;;;;;;;;;13.40;71.10;;;;;;5116556;28;19940;-89
2023/03/19 09:35:32;;;;;;;;;;;13.40;71.40;;;;;;5115473;28;19937;-90
2023/03/19 09:37:58;;;;;;;;;;;13.40;72.40;;;;;;5095845;28;19951;-89
2023/03/19 09:40:26;;;;;;;;;;;13.60;71.70;;;;;;5095693;28;19958;-89
2023/03/19 09:43:02;;;;;;;;;;;13.90;69.80;;;;;;5095684;28;19941;-91
2023/03/19 09:45:28;;;;;;;;;;;13.90;68.30;;;;;;5095678;28;20024;-90
2023/03/19 09:47:57;;;;;;;;;;;13.80;67.80;;;;;;5095614;28;20349;-90
2023/03/19 09:50:24;;;;;;;;;;;13.90;68.30;;;;;;5095440;28;19954;-90
2023/03/19 09:52:52;;;;;;;;;;;14.10;69.70;;;;;;5095949;28;19966;-91
2023/03/19 09:55:24;;;;;;;;;;;14.10;69.10;;;;;;5095497;28;19948;-90
2023/03/19 09:57:52;;;;;;;;;;;14.00;69.70;;;;;;5095486;28;19950;-90
2023/03/19 10:00:20;;;;;;;;;;;13.90;69.00;;;;;;5115738;28;19942;-89
2023/03/19 10:02:46;;;;;;;;;;;13.90;70.10;;;;;;5115917;28;19939;-91
2023/03/19 10:05:15;;;;;;;;;;;14.00;67.60;;;;;;5115542;28;19979;-90
2023/03/19 10:07:40;;;;;;;;;;;14.20;67.80;;;;;;5115591;28;19936;-90
2023/03/19 10:10:16;;;;;;;;;;;14.10;68.20;;;;;;5115433;28;19973;-91
2023/03/19 10:12:42;;;;;;;;;;;14.10;67.20;;;;;;5115552;28;19937;-90
2023/03/19 10:15:19;;;;;;;;;;;14.30;65.50;;;;;;5115997;28;19956;-90
2023/03/19 10:17:52;;;;;;;;;;;14.40;65.30;;;;;;5115343;28;19976;-90
2023/03/19 10:20:37;;;;;;;;;;;14.50;66.20;;;;;;5115371;28;19976;-91
2023/03/19 10:23:22;;;;;;;;;;;14.80;64.20;;;;;;5103275;28;19949;-90
2023/03/19 10:25:48;;;;;;;;;;;15.10;62.40;;;;;;5094837;28;19938;-90
2023/03/19 10:28:15;;;;;;;;;;;15.10;64.90;;;;;;5094780;28;19941;-90
2023/03/19 10:30:44;;;;;;;;;;;15.20;63.20;;;;;;5094646;28;20332;-91
2023/03/19 10:33:22;;;;;;;;;;;15.30;62.10;;;;;;5094688;28;20027;-90
2023/03/19 10:35:53;;;;;;;;;;;15.40;60.30;;;;;;5094653;28;19946;-90
2023/03/19 10:38:22;;;;;;;;;;;15.60;58.70;;;;;;5094580;28;19942;-91
2023/03/19 10:41:15;;;;;;;;;;;15.60;57.60;;;;;;5094559;28;20026;-90
2023/03/19 10:43:42;;;;;;;;;;;15.40;58.60;;;;;;5094484;28;19970;-90
2023/03/19 10:46:11;;;;;;;;;;;15.10;59.40;;;;;;5094463;28;19941;-90
2023/03/19 10:48:41;;;;;;;;;;;15.20;58.70;;;;;;5094074;28;19948;-90
2023/03/19 10:51:07;;;;;;;;;;;15.30;59.40;;;;;;5114176;28;19966;-90
2023/03/19 10:53:34;;;;;;;;;;;15.40;59.20;;;;;;5096293;28;19960;-90
2023/03/19 10:56:11;;;;;;;;;;;15.40;58.20;;;;;;5114604;28;19955;-89
2023/03/19 10:58:39;;;;;;;;;;;15.40;58.50;;;;;;5114431;28;19958;-90
2023/03/19 11:01:06;;;;;;;;;;;15.30;58.50;;;;;;5096212;28;20031;-90
2023/03/19 11:03:33;;;;;;;;;;;15.20;58.90;;;;;;5114511;28;19941;-90
2023/03/19 11:06:16;;;;;;;;;;;15.10;58.90;;;;;;5114440;28;19948;-90
2023/03/19 11:08:41;;;;;;;;;;;15.00;58.60;;;;;;5114418;28;20416;-90
2023/03/19 11:11:21;;;;;;;;;;;14.80;59.70;;;;;;5113633;28;19957;-90
2023/03/19 11:13:47;;;;;;;;;;;14.80;59.50;;;;;;5114312;28;19947;-90
2023/03/19 11:16:12;;;;;;;;;;;14.80;59.00;;;;;;5111647;28;19957;-90
2023/03/19 11:18:38;;;;;;;;;;;14.90;57.80;;;;;;5093910;28;19943;-91
2023/03/19 11:21:19;;;;;;;;;;;15.10;57.40;;;;;;5094075;28;19939;-90
2023/03/19 11:23:50;;;;;;;;;;;15.30;56.40;;;;;;5093785;28;19981;-91
2023/03/19 11:26:17;;;;;;;;;;;15.30;55.70;;;;;;5093722;28;20327;-90
2023/03/19 11:28:43;;;;;;;;;;;15.40;54.10;;;;;;5093752;28;20276;-90
2023/03/19 11:31:20;;;;;;;;;;;15.60;54.10;;;;;;5093603;28;19962;-90
2023/03/19 11:33:45;;;;;;;;;;;15.60;54.10;;;;;;5101149;28;19957;-90
2023/03/19 11:36:20;;;;;;;;;;;15.70;52.90;;;;;;5113607;28;19949;-91
2023/03/19 11:39:05;;;;;;;;;;;15.80;53.90;;;;;;5113920;28;20381;-91
2023/03/19 11:41:34;;;;;;;;;;;15.90;53.70;;;;;;5113851;28;19937;-90
2023/03/19 11:44:02;;;;;;;;;;;16.20;54.10;;;;;;5108017;28;19949;-91
2023/03/19 11:46:46;;;;;;;;;;;16.30;54.00;;;;;;5071536;28;19941;-91
2023/03/19 11:49:15;;;;;;;;;;;16.50;53.30;;;;;;5093432;28;20057;-91
2023/03/19 11:52:00;;;;;;;;;;;16.80;51.90;;;;;;5093384;28;20291;-91
2023/03/19 11:54:32;;;;;;;;;;;17.10;49.90;;;;;;5093322;28;19940;-90
2023/03/19 11:57:08;;;;;;;;;;;17.30;48.90;;;;;;5093370;28;19943;-91
2023/03/19 11:59:53;;;;;;;;;;;17.40;47.40;;;;;;5093307;28;20397;-91
2023/03/19 12:02:22;;;;;;;;;;;17.50;48.80;;;;;;5093307;28;19949;-91
2023/03/19 12:04:50;;;;;;;;;;;17.60;49.40;;;;;;5080606;28;20025;-91
2023/03/19 12:07:36;;;;;;;;;;;17.10;48.80;;;;;;5069070;28;19993;-91
2023/03/19 12:10:15;;;;;;;;;;;17.30;50.50;;;;;;5093421;28;20056;-91
2023/03/19 12:12:45;;;;;;;;;;;17.30;53.20;;;;;;5093132;28;19962;-91
2023/03/19 12:15:29;;;;;;;;;;;17.40;51.50;;;;;;5093125;28;20029;-91
2023/03/19 12:17:58;;;;;;;;;;;17.60;50.10;;;;;;5093087;28;20515;-90
2023/03/19 12:20:24;;;;;;;;;;;17.40;48.70;;;;;;5093092;28;19946;-91
2023/03/19 12:22:49;;;;;;;;;;;17.40;50.60;;;;;;5096882;28;19948;-91
2023/03/19 12:25:27;;;;;;;;;;;17.80;48.90;;;;;;5097211;28;20293;-90
2023/03/19 12:28:11;;;;;;;;;;;18.00;49.90;;;;;;5097184;28;20411;-90
2023/03/19 12:31:08;;;;;;;;;;;18.00;46.60;;;;;;5097119;28;20004;-90
2023/03/19 12:33:37;;;;;;;;;;;18.00;46.40;;;;;;5040105;28;19949;-90
2023/03/19 12:36:07;;;;;;;;;;;18.40;47.80;;;;;;5076744;28;19987;-90
2023/03/19 12:38:33;;;;;;;;;;;18.40;47.10;;;;;;5076679;28;19992;-90
2023/03/19 12:41:03;;;;;;;;;;;18.80;46.70;;;;;;5076614;28;20307;-91
2023/03/19 12:43:37;;;;;;;;;;;19.30;46.30;;;;;;5076612;28;19952;-91
2023/03/19 12:46:09;;;;;;;;;;;19.80;44.80;;;;;;5076596;28;19939;-91
2023/03/19 12:48:40;;;;;;;;;;;20.10;42.90;;;;;;5058653;28;19942;-89
2023/03/19 12:51:08;;;;;;;;;;;20.70;40.70;;;;;;5076293;28;20069;-91
2023/03/19 12:53:34;;;;;;;;;;;20.50;40.70;;;;;;5058375;28;19970;-90
2023/03/19 12:56:05;;;;;;;;;;;20.00;42.10;;;;;;5076336;28;20489;-91
2023/03/19 12:58:49;;;;;;;;;;;20.10;44.20;;;;;;5076271;28;19941;-90
2023/03/19 13:01:17;;;;;;;;;;;20.10;43.60;;;;;;5076152;28;19942;-90
2023/03/19 13:03:46;;;;;;;;;;;20.30;42.80;;;;;;5079282;28;20059;-91
2023/03/19 13:06:18;;;;;;;;;;;20.80;43.20;;;;;;5096432;28;20343;-90
2023/03/19 13:08:47;;;;;;;;;;;20.90;42.00;;;;;;5096420;28;19989;-90
2023/03/19 13:11:15;;;;;;;;;;;21.10;41.50;;;;;;5096213;28;20319;-91
2023/03/19 13:13:47;;;;;;;;;;;21.00;40.30;;;;;;5096315;28;20345;-90
2023/03/19 13:16:18;;;;;;;;;;;21.10;41.50;;;;;;5096565;28;19950;-90
2023/03/19 13:18:56;;;;;;;;;;;21.60;40.30;;;;;;5096182;28;19938;-90
2023/03/19 13:21:22;;;;;;;;;;;22.80;38.10;;;;;;5096097;28;20293;-91
2023/03/19 13:23:50;;;;;;;;;;;23.40;37.20;;;;;;5096092;28;19945;-91
2023/03/19 13:26:17;;;;;;;;;;;24.40;34.30;;;;;;5096106;28;19992;-91
2023/03/19 13:29:00;;;;;;;;;;;25.10;33.30;;;;;;5096047;28;19941;-91
2023/03/19 13:31:26;;;;;;;;;;;25.50;33.00;;;;;;5095905;28;20121;-91
2023/03/19 13:34:21;;;;;;;;;;;25.90;31.70;;;;;;5104303;28;20184;-91
2023/03/19 13:36:50;;;;;;;;;;;26.30;31.50;;;;;;5098126;28;19953;-91
2023/03/19 13:39:30;;;;;;;;;;;26.20;32.60;;;;;;5116150;28;19964;-91
2023/03/19 13:42:05;;;;;;;;;;;25.70;33.60;;;;;;5116373;28;20037;-90
2023/03/19 13:44:31;;;;;;;;;;;24.60;34.80;;;;;;5116270;28;19941;-90
2023/03/19 13:46:59;;;;;;;;;;;24.40;35.30;;;;;;5116014;28;20314;-91
2023/03/19 13:49:32;;;;;;;;;;;24.60;35.00;;;;;;5115833;28;20398;-90
2023/03/19 13:52:21;;;;;;;;;;;25.30;34.60;;;;;;5115870;28;20358;-91
2023/03/19 13:54:51;;;;;;;;;;;25.90;33.70;;;;;;5077533;28;19949;-90
2023/03/19 13:57:18;;;;;;;;;;;26.30;31.70;;;;;;5115810;28;19966;-91
2023/03/19 13:59:45;;;;;;;;;;;26.30;32.60;;;;;;5115777;28;19946;-90
2023/03/19 14:02:20;;;;;;;;;;;25.40;33.40;;;;;;5113702;28;19943;-91
2023/03/19 14:04:57;;;;;;;;;;;25.20;34.40;;;;;;5073662;28;19998;-91
2023/03/19 14:07:25;;;;;;;;;;;26.10;32.10;;;;;;5075093;28;19940;-90
2023/03/19 14:09:57;;;;;;;;;;;24.60;34.00;;;;;;5074895;28;20385;-91
2023/03/19 14:12:28;;;;;;;;;;;22.70;38.70;;;;;;5074940;28;19946;-90
2023/03/19 14:15:14;;;;;;;;;;;21.50;39.10;;;;;;5074951;28;19950;-91
2023/03/19 14:17:52;;;;;;;;;;;20.70;41.90;;;;;;5074679;28;19997;-90
2023/03/19 14:20:17;;;;;;;;;;;20.50;42.20;;;;;;5074776;28;20417;-90
2023/03/19 14:22:57;;;;;;;;;;;19.90;44.30;;;;;;5074724;28;19937;-90
2023/03/19 14:25:26;;;;;;;;;;;19.80;44.30;;;;;;5074638;28;20381;-91
2023/03/19 14:27:58;;;;;;;;;;;20.10;43.70;;;;;;5074602;28;19936;-90